Terminal Aerodrome Forecast
Issued by NWS

Home | Current Version | Previous Version | Text Only | Print | Product List | Glossary On
Versions: 1 2 3 4 5 6 7 8 9 10 11 12 13
000
FTUS43 KMQT 141100
TAFSAW
TAF
KSAW 141128Z 1412/1512 VRB03KT P6SM SCT070
     FM141400 30007KT P6SM VCSH BKN040
     FM141600 32009KT P6SM -SHRA BKN025
     FM150000 35006KT P6SM SCT030 BKN050
     FM150900 34010KT P6SM -SHRA BKN010
      AMD LTD TO CLD VIS AND WIND 1502/1510=

USA.gov is the U.S. government's official web portal to all federal, state and local government web resources and services.